Time;durP1;ratioP1;P1;durP2;ratioP2;P2;SDS_P1;SDS_P2;PMS_P1;PMS_P2;Temp;Humidity;BMP_temperature;BMP_pressure;BME280_temperature;BME280_humidity;BME280_pressure;Samples;Min_cycle;Max_cycle;Signal;HPM_P1;HPM_P2
2023/05/18 00:00:43;;;;;;;9.25;2.97;;;;;;;10.22;60.37;102699.41;5053271;28;20389;-84
2023/05/18 00:03:09;;;;;;;8.15;2.95;;;;;;;10.06;60.38;102682.00;5053452;28;20465;-85
2023/05/18 00:05:35;;;;;;;7.13;2.92;;;;;;;10.14;60.58;102691.16;5035765;28;20028;-85
2023/05/18 00:08:01;;;;;;;11.07;3.15;;;;;;;10.08;60.70;102687.38;5053363;28;20040;-84
2023/05/18 00:10:26;;;;;;;8.68;2.90;;;;;;;9.87;60.89;102651.28;5053444;28;20052;-85
2023/05/18 00:12:52;;;;;;;7.22;3.00;;;;;;;10.02;61.05;102688.00;5035564;28;20035;-84
2023/05/18 00:15:17;;;;;;;9.32;3.40;;;;;;;9.95;61.23;102700.06;5034958;28;20461;-85
2023/05/18 00:17:44;;;;;;;9.65;3.13;;;;;;;9.94;60.99;102689.44;5053125;28;20040;-84
2023/05/18 00:20:10;;;;;;;9.55;2.92;;;;;;;9.78;61.03;102649.16;5019305;28;20033;-84
2023/05/18 00:22:37;;;;;;;7.00;2.90;;;;;;;9.94;61.08;102695.63;5053006;28;20056;-84
2023/05/18 00:25:03;;;;;;;10.27;2.95;;;;;;;9.64;61.39;102644.13;5053379;28;20071;-84
2023/05/18 00:27:29;;;;;;;8.00;2.90;;;;;;;9.73;61.47;102670.94;5035463;28;20060;-84
2023/05/18 00:29:54;;;;;;;11.27;3.10;;;;;;;9.87;61.45;102701.47;5018833;28;20037;-84
2023/05/18 00:32:20;;;;;;;8.07;2.83;;;;;;;9.89;61.30;102691.88;5018620;28;20040;-84
2023/05/18 00:34:45;;;;;;;9.80;3.10;;;;;;;9.85;61.55;102702.22;5035328;28;20029;-84
2023/05/18 00:37:10;;;;;;;11.43;3.20;;;;;;;9.86;60.72;102701.41;5053174;28;20025;-84
2023/05/18 00:39:36;;;;;;;12.20;2.95;;;;;;;9.84;61.34;102706.59;5052713;28;20473;-84
2023/05/18 00:42:01;;;;;;;8.45;2.85;;;;;;;9.71;61.44;102683.13;5053112;28;20037;-84
2023/05/18 00:44:27;;;;;;;9.85;2.88;;;;;;;9.81;61.49;102706.50;5035101;28;20033;-84
2023/05/18 00:46:52;;;;;;;11.23;3.08;;;;;;;9.67;61.67;102687.38;5052893;28;20033;-84
2023/05/18 00:49:18;;;;;;;7.15;2.72;;;;;;;9.62;61.43;102672.19;5052917;28;20048;-84
2023/05/18 00:51:44;;;;;;;10.88;3.08;;;;;;;9.71;62.66;102697.25;5053014;28;20029;-84
2023/05/18 00:54:10;;;;;;;11.13;3.00;;;;;;;9.68;62.04;102704.16;5053002;28;20028;-84
2023/05/18 00:56:40;;;;;;;7.80;2.88;;;;;;;9.64;62.17;102703.09;5052981;28;20028;-85
2023/05/18 00:59:08;;;;;;;7.63;2.97;;;;;;;9.60;62.19;102690.59;5035231;28;20033;-84
2023/05/18 01:01:34;;;;;;;8.27;2.97;;;;;;;9.61;62.40;102704.69;5035224;28;20033;-87
2023/05/18 01:04:01;;;;;;;7.60;2.85;;;;;;;9.49;62.09;102689.22;5052514;28;20376;-83
2023/05/18 01:06:31;;;;;;;7.03;2.83;;;;;;;9.36;62.42;102685.13;5035190;28;20095;-83
2023/05/18 01:09:02;;;;;;;7.00;3.15;;;;;;;9.39;62.70;102693.19;5052849;28;20029;-84
2023/05/18 01:12:03;;;;;;;9.57;3.28;;;;;;;9.48;62.59;102713.81;5052983;28;20059;-84
2023/05/18 01:14:50;;;;;;;12.55;3.10;;;;;;;9.34;62.12;102686.81;5052958;28;20029;-83
2023/05/18 01:17:36;;;;;;;9.02;3.00;;;;;;;9.48;62.55;102713.81;5052667;28;20091;-83
2023/05/18 01:20:20;;;;;;;10.02;2.92;;;;;;;9.41;63.26;102715.25;5052774;28;20116;-84
2023/05/18 01:23:11;;;;;;;8.05;2.88;;;;;;;9.38;62.94;102712.50;5052701;28;20051;-84
2023/05/18 01:25:47;;;;;;;9.48;2.78;;;;;;;9.31;63.07;102720.94;5053101;28;20021;-85
2023/05/18 01:28:16;;;;;;;6.30;2.85;;;;;;;9.30;63.03;102713.88;5056492;28;20048;-84
2023/05/18 01:30:42;;;;;;;7.03;2.60;;;;;;;9.27;63.09;102716.38;5056294;28;20033;-85
2023/05/18 01:33:08;;;;;;;7.35;2.97;;;;;;;9.23;63.25;102712.66;5056049;28;20037;-86
2023/05/18 01:35:35;;;;;;;8.65;2.80;;;;;;;9.20;63.29;102701.97;5056303;28;20120;-85
2023/05/18 01:38:01;;;;;;;7.25;2.80;;;;;;;9.17;63.17;102686.03;5038464;28;20037;-84
2023/05/18 01:40:32;;;;;;;7.47;2.97;;;;;;;9.21;63.59;102708.19;5038409;28;20491;-85
2023/05/18 01:43:07;;;;;;;7.70;2.95;;;;;;;9.12;63.45;102686.63;5055954;28;20484;-85
2023/05/18 01:45:35;;;;;;;6.97;2.80;;;;;;;9.08;63.29;102689.94;5038262;28;20431;-85
2023/05/18 01:48:01;;;;;;;9.50;3.30;;;;;;;9.13;63.71;102706.91;5038081;28;20028;-85
2023/05/18 01:50:37;;;;;;;8.02;3.30;;;;;;;8.86;63.66;102657.31;5055655;28;20372;-85
2023/05/18 01:53:12;;;;;;;8.48;3.03;;;;;;;9.21;63.46;102710.81;5055760;28;20025;-86
2023/05/18 01:55:39;;;;;;;7.75;2.85;;;;;;;9.22;63.71;102713.50;5056373;28;20120;-85
2023/05/18 01:58:06;;;;;;;9.52;3.20;;;;;;;8.99;63.53;102678.19;5055814;28;20075;-85
2023/05/18 02:00:33;;;;;;;7.05;2.90;;;;;;;9.05;63.55;102689.84;5055794;28;20043;-85
2023/05/18 02:02:58;;;;;;;8.27;3.00;;;;;;;9.13;64.04;102714.84;5055738;28;20060;-84
2023/05/18 02:05:24;;;;;;;8.68;3.20;;;;;;;9.10;63.65;102705.03;5055342;28;20056;-84
2023/05/18 02:07:49;;;;;;;8.95;3.40;;;;;;;9.14;63.49;102709.63;5055392;28;20028;-85
2023/05/18 02:10:15;;;;;;;11.75;3.20;;;;;;;9.00;63.99;102682.59;5055729;28;20195;-84
2023/05/18 02:12:40;;;;;;;7.32;3.10;;;;;;;8.96;63.28;102672.75;5021369;28;20033;-85
2023/05/18 02:15:07;;;;;;;11.02;3.22;;;;;;;9.06;64.07;102689.91;5055316;28;20504;-85
2023/05/18 02:17:36;;;;;;;9.70;2.90;;;;;;;9.00;64.13;102685.25;5055479;28;20480;-84
2023/05/18 02:20:05;;;;;;;9.52;2.95;;;;;;;9.05;64.50;102701.28;5055353;28;20043;-85
2023/05/18 02:22:31;;;;;;;12.05;3.00;;;;;;;8.89;64.81;102689.09;5055568;28;20056;-84
2023/05/18 02:24:56;;;;;;;9.55;3.55;;;;;;;8.70;65.08;102655.72;5055408;28;20064;-85
2023/05/18 02:27:21;;;;;;;6.88;3.00;;;;;;;8.88;64.69;102694.31;5037471;28;20063;-85
2023/05/18 02:29:47;;;;;;;8.50;3.20;;;;;;;8.86;64.39;102681.03;5054998;28;20064;-85
2023/05/18 02:32:12;;;;;;;7.88;3.03;;;;;;;8.91;65.20;102686.56;5037671;28;20037;-85
2023/05/18 02:34:40;;;;;;;7.53;2.88;;;;;;;8.92;64.62;102691.91;5020894;28;20550;-84
2023/05/18 02:37:06;;;;;;;9.13;2.95;;;;;;;8.89;64.94;102706.66;5037073;28;20036;-85
2023/05/18 02:39:32;;;;;;;8.07;2.97;;;;;;;8.77;65.15;102694.69;5054462;28;20542;-85
2023/05/18 02:41:58;;;;;;;7.97;3.20;;;;;;;8.78;64.98;102687.72;5037411;28;20033;-85
2023/05/18 02:44:24;;;;;;;10.13;3.20;;;;;;;8.64;65.49;102659.78;5055000;28;20076;-85
2023/05/18 02:46:49;;;;;;;7.53;2.83;;;;;;;8.81;65.07;102686.94;5054810;28;20059;-85
2023/05/18 02:49:14;;;;;;;9.93;3.20;;;;;;;8.63;65.50;102665.88;5054691;28;20167;-85
2023/05/18 02:51:40;;;;;;;10.43;3.17;;;;;;;8.71;65.51;102680.34;5055068;28;20469;-85
2023/05/18 02:54:06;;;;;;;9.32;3.60;;;;;;;8.76;65.16;102684.97;5054785;28;20029;-85
2023/05/18 02:56:31;;;;;;;6.53;2.90;;;;;;;8.72;65.56;102676.84;5054562;28;20370;-85
2023/05/18 02:58:57;;;;;;;8.32;3.25;;;;;;;8.66;65.43;102661.66;5054407;28;20533;-85
2023/05/18 03:01:26;;;;;;;8.40;3.10;;;;;;;8.62;65.62;102672.88;5054464;28;20049;-85
2023/05/18 03:03:58;;;;;;;7.38;3.05;;;;;;;8.81;65.62;102690.47;5036560;28;20029;-85
2023/05/18 03:06:25;;;;;;;9.50;3.15;;;;;;;8.76;65.35;102686.72;5054487;28;20112;-85
2023/05/18 03:08:54;;;;;;;9.48;3.28;;;;;;;8.77;64.81;102685.88;5054322;28;20037;-85
2023/05/18 03:11:21;;;;;;;7.30;3.35;;;;;;;8.73;65.06;102690.09;5054522;28;20037;-85
2023/05/18 03:13:50;;;;;;;6.03;3.05;;;;;;;8.69;64.89;102677.63;5054402;28;20477;-85
2023/05/18 03:16:15;;;;;;;8.73;3.22;;;;;;;8.69;65.13;102696.09;5054380;28;20029;-85
2023/05/18 03:18:40;;;;;;;7.10;3.22;;;;;;;8.61;65.75;102678.06;5054051;28;20032;-86
2023/05/18 03:21:06;;;;;;;10.70;3.38;;;;;;;8.69;65.63;102692.50;5054355;28;20060;-86
2023/05/18 03:23:32;;;;;;;13.73;3.10;;;;;;;8.62;65.53;102688.69;5053998;28;20064;-85
2023/05/18 03:25:58;;;;;;;8.27;2.95;;;;;;;8.60;65.48;102695.63;5054467;28;20080;-85
2023/05/18 03:28:23;;;;;;;9.00;3.40;;;;;;;8.57;65.51;102698.13;5036218;28;20037;-85
2023/05/18 03:30:48;;;;;;;10.75;3.45;;;;;;;8.47;65.72;102694.13;5054188;28;20107;-85
2023/05/18 03:33:14;;;;;;;9.75;3.40;;;;;;;8.17;66.37;102650.44;5054303;28;20031;-85
2023/05/18 03:35:42;;;;;;;7.60;3.13;;;;;;;8.29;66.49;102686.19;5054108;28;20031;-85
2023/05/18 03:38:07;;;;;;;9.25;3.30;;;;;;;8.40;66.33;102681.50;5053738;28;20056;-86
2023/05/18 03:40:33;;;;;;;7.43;3.30;;;;;;;8.29;66.26;102664.22;5053843;28;20452;-86
2023/05/18 03:42:58;;;;;;;7.75;3.00;;;;;;;8.38;65.77;102687.50;5035433;28;20044;-86
2023/05/18 03:45:23;;;;;;;9.13;2.92;;;;;;;8.38;66.09;102688.41;5035205;28;20032;-85
2023/05/18 03:47:50;;;;;;;9.93;3.30;;;;;;;8.36;65.74;102692.66;5034790;28;20064;-85
2023/05/18 03:50:15;;;;;;;11.20;3.45;;;;;;;8.36;66.17;102695.31;5034257;28;20029;-85
2023/05/18 03:52:43;;;;;;;10.20;3.65;;;;;;;8.23;66.24;102672.72;5053261;28;20110;-86
2023/05/18 03:55:09;;;;;;;8.85;3.08;;;;;;;7.99;66.67;102656.59;5053037;28;20033;-86
2023/05/18 03:57:34;;;;;;;10.95;3.97;;;;;;;8.23;67.03;102706.06;5052884;28;20090;-85
2023/05/18 04:00:00;;;;;;;11.65;3.35;;;;;;;8.22;67.35;102701.59;5035105;28;20029;-85
2023/05/18 04:02:25;;;;;;;10.63;3.63;;;;;;;8.20;67.68;102700.63;5053482;28;20033;-85
2023/05/18 04:04:52;;;;;;;7.93;3.30;;;;;;;8.25;67.00;102707.91;5019010;28;20029;-86
2023/05/18 04:07:21;;;;;;;10.48;4.30;;;;;;;8.15;66.86;102686.34;5033110;28;20030;-86
2023/05/18 04:09:47;;;;;;;11.68;4.05;;;;;;;8.09;66.59;102679.00;5032588;28;20057;-86
2023/05/18 04:12:13;;;;;;;11.40;3.63;;;;;;;8.19;66.62;102702.34;5032931;28;20029;-86
2023/05/18 04:14:48;;;;;;;9.70;3.70;;;;;;;8.22;67.03;102701.59;5015142;28;20088;-86
2023/05/18 04:17:21;;;;;;;13.98;3.22;;;;;;;8.21;67.70;102719.13;5016515;28;20410;-85
2023/05/18 04:19:47;;;;;;;13.52;3.70;;;;;;;8.18;67.64;102719.00;4999025;28;20087;-85
2023/05/18 04:22:13;;;;;;;8.43;3.20;;;;;;;8.02;67.41;102687.44;5032584;28;20037;-86
2023/05/18 04:24:40;;;;;;;8.43;3.25;;;;;;;8.12;67.63;102712.50;5032881;28;20049;-86
2023/05/18 04:27:07;;;;;;;11.13;3.22;;;;;;;8.17;67.40;102724.16;5015067;28;20091;-86
2023/05/18 04:29:33;;;;;;;11.05;3.80;;;;;;;8.13;68.01;102706.41;5015416;28;20037;-87
2023/05/18 04:31:59;;;;;;;10.52;3.35;;;;;;;8.20;67.69;102711.16;5032607;28;20064;-85
2023/05/18 04:34:28;;;;;;;8.90;3.50;;;;;;;8.20;67.95;102711.16;5032693;28;20117;-86
2023/05/18 04:36:54;;;;;;;11.05;3.50;;;;;;;8.27;67.25;102722.09;5032282;28;20363;-86
2023/05/18 04:39:22;;;;;;;8.70;3.40;;;;;;;8.38;67.41;102732.28;5014771;28;20045;-86
2023/05/18 04:41:48;;;;;;;11.95;3.30;;;;;;;8.41;67.35;102725.44;5014453;28;20116;-86
2023/05/18 04:44:14;;;;;;;10.65;3.50;;;;;;;8.35;67.77;102713.63;5032780;28;20032;-86
2023/05/18 04:46:40;;;;;;;10.70;3.63;;;;;;;8.55;66.73;102723.47;5032353;28;20418;-87
2023/05/18 04:49:05;;;;;;;11.75;3.50;;;;;;;8.58;66.64;102730.63;5032536;28;20029;-86
2023/05/18 04:51:33;;;;;;;13.45;3.33;;;;;;;8.60;67.04;102736.88;5015064;28;20431;-86
2023/05/18 04:53:59;;;;;;;9.63;3.50;;;;;;;8.62;66.93;102738.78;5032344;28;20029;-86
2023/05/18 04:56:24;;;;;;;10.18;3.33;;;;;;;8.42;66.71;102689.47;5032235;28;20034;-86
2023/05/18 04:58:50;;;;;;;10.70;3.58;;;;;;;8.58;66.87;102730.63;5032092;28;20311;-86
2023/05/18 05:01:16;;;;;;;8.90;3.45;;;;;;;8.43;66.75;102707.97;5033838;28;20034;-85
2023/05/18 05:03:44;;;;;;;10.13;3.47;;;;;;;8.60;67.22;102739.50;5018514;28;20034;-86
2023/05/18 05:06:10;;;;;;;11.70;3.40;;;;;;;8.62;67.67;102738.78;5018506;28;20040;-86
2023/05/18 05:08:36;;;;;;;9.63;3.42;;;;;;;8.60;67.68;102727.22;5036191;28;20030;-87
2023/05/18 05:11:05;;;;;;;9.05;3.55;;;;;;;8.50;67.35;102706.53;5035638;28;20245;-86
2023/05/18 05:13:33;;;;;;;11.95;3.53;;;;;;;8.76;67.55;102737.69;5036251;28;20029;-86
2023/05/18 05:15:58;;;;;;;10.60;3.80;;;;;;;8.62;67.36;102700.97;5035683;28;20087;-86
2023/05/18 05:18:29;;;;;;;11.07;3.72;;;;;;;8.73;67.07;102708.56;5035717;28;20033;-86
2023/05/18 05:20:55;;;;;;;7.80;3.80;;;;;;;8.94;66.77;102732.41;5035473;28;20120;-86
2023/05/18 05:23:20;;;;;;;8.88;3.78;;;;;;;8.78;66.70;102692.97;5018417;28;20561;-86
2023/05/18 05:25:45;;;;;;;9.73;3.65;;;;;;;9.11;66.53;102733.19;5035897;28;20501;-86
2023/05/18 05:28:11;;;;;;;7.78;3.33;;;;;;;8.93;66.83;102696.31;5035991;28;20033;-86
2023/05/18 05:30:39;;;;;;;9.07;3.58;;;;;;;9.09;66.46;102710.25;5035512;28;20044;-86
2023/05/18 05:33:07;;;;;;;9.07;4.03;;;;;;;9.13;65.92;102693.72;5035570;28;20097;-87
2023/05/18 05:35:35;;;;;;;12.95;3.55;;;;;;;9.12;65.58;102677.00;5035756;28;20044;-86
2023/05/18 05:38:01;;;;;;;11.52;4.00;;;;;;;9.63;66.35;102745.25;5018004;28;20477;-86
2023/05/18 05:40:29;;;;;;;12.18;3.70;;;;;;;9.54;64.51;102711.44;5035350;28;20060;-86
2023/05/18 05:42:57;;;;;;;12.68;3.83;;;;;;;9.56;65.00;102701.84;5017641;28;20033;-86
2023/05/18 05:45:27;;;;;;;12.65;3.72;;;;;;;9.59;64.11;102717.81;5035918;28;20052;-86
2023/05/18 05:47:55;;;;;;;8.75;3.67;;;;;;;9.64;63.68;102721.59;5017721;28;20481;-85
2023/05/18 05:50:28;;;;;;;9.70;3.70;;;;;;;9.36;63.97;102678.94;5018016;28;20405;-85
2023/05/18 05:52:56;;;;;;;9.18;3.92;;;;;;;9.41;64.28;102685.31;5035143;28;20030;-86
2023/05/18 05:55:25;;;;;;;17.40;4.18;;;;;;;9.63;63.94;102724.13;5035218;28;20079;-86
2023/05/18 05:57:55;;;;;;;12.52;4.05;;;;;;;9.42;64.06;102687.13;5035082;28;20037;-86
2023/05/18 06:00:26;;;;;;;14.90;4.10;;;;;;;9.57;63.66;102708.94;5035164;28;20406;-86
2023/05/18 06:02:59;;;;;;;13.13;3.92;;;;;;;9.40;64.35;102675.63;5017762;28;20043;-86
2023/05/18 06:05:30;;;;;;;12.18;4.10;;;;;;;9.59;63.51;102699.31;5035233;28;20038;-86
2023/05/18 06:07:57;;;;;;;8.85;3.90;;;;;;;9.54;63.02;102682.41;5035229;28;20034;-86
2023/05/18 06:10:33;;;;;;;;;;;;;;;;;;;;;
2023/05/18 06:12:59;;;;;;;12.45;4.07;;;;;;;9.73;63.42;102687.66;5034204;28;20041;-86
2023/05/18 06:15:24;;;;;;;14.70;4.72;;;;;;;9.98;62.80;102708.13;5034813;28;20113;-86
2023/05/18 06:17:50;;;;;;;10.07;4.25;;;;;;;10.28;63.36;102726.16;5035234;28;20511;-86
2023/05/18 06:20:16;;;;;;;13.50;4.30;;;;;;;10.53;61.90;102736.91;5018218;28;20108;-86
2023/05/18 06:22:42;;;;;;;9.57;3.90;;;;;;;10.71;60.73;102723.53;5035152;28;20025;-86
2023/05/18 06:25:10;;;;;;;9.80;4.13;;;;;;;10.58;59.32;102683.28;5035406;28;20461;-87
2023/05/18 06:27:38;;;;;;;12.30;4.30;;;;;;;10.91;59.39;102703.13;5018086;28;20070;-87
2023/05/18 06:30:13;;;;;;;12.30;4.32;;;;;;;11.31;59.30;102732.91;5017185;28;20096;-88
2023/05/18 06:32:39;;;;;;;10.77;4.10;;;;;;;11.39;57.60;102715.53;5035231;28;20036;-86
2023/05/18 06:35:07;;;;;;;10.07;3.80;;;;;;;11.76;57.47;102749.56;5034367;28;20025;-86
2023/05/18 06:37:45;;;;;;;12.02;4.03;;;;;;;11.69;56.89;102707.81;5034391;28;20052;-86
2023/05/18 06:40:13;;;;;;;13.52;4.05;;;;;;;12.05;55.92;102720.63;5034468;28;20033;-87
2023/05/18 06:42:41;;;;;;;14.07;4.20;;;;;;;12.17;56.18;102684.84;5034563;28;20033;-86
2023/05/18 06:45:15;;;;;;;8.73;4.00;;;;;;;12.79;54.20;102749.63;5034248;28;20517;-86
2023/05/18 06:47:41;;;;;;;11.95;4.63;;;;;;;12.89;53.66;102721.66;5034021;28;20044;-86
2023/05/18 06:50:12;;;;;;;13.05;4.78;;;;;;;13.10;52.92;102757.66;5016489;28;20029;-86
2023/05/18 06:52:38;;;;;;;15.93;6.60;;;;;;;13.09;53.55;102702.78;5034083;28;20036;-87
2023/05/18 06:55:08;;;;;;;12.05;4.38;;;;;;;13.51;53.72;102746.56;5034255;28;20033;-87
2023/05/18 06:57:37;;;;;;;12.30;4.13;;;;;;;13.68;51.89;102731.09;5016861;28;20038;-86
2023/05/18 07:00:09;;;;;;;10.43;3.78;;;;;;;13.64;50.77;102715.94;5033819;28;20065;-89
2023/05/18 07:02:47;;;;;;;;;;;;;;;;;;;;;
2023/05/18 07:05:15;;;;;;;11.50;4.35;;;;;;;13.64;50.17;102693.78;5034224;28;20274;-86
2023/05/18 07:07:48;;;;;;;9.93;4.20;;;;;;;13.93;50.05;102738.00;5016470;28;20038;-87
2023/05/18 07:10:16;;;;;;;14.48;4.20;;;;;;;14.14;49.18;102766.94;5035099;28;20115;-88
2023/05/18 07:12:47;;;;;;;13.25;3.90;;;;;;;13.98;49.48;102749.66;5018302;28;20120;-87
2023/05/18 07:15:25;;;;;;;;;;;;;;;;;;;;;
2023/05/18 07:17:53;;;;;;;12.00;5.40;;;;;;;14.19;48.70;102767.03;5034446;28;20041;-85
2023/05/18 07:20:19;;;;;;;11.65;4.28;;;;;;;14.07;49.77;102733.03;5017327;28;20121;-85
2023/05/18 07:22:44;;;;;;;9.95;4.35;;;;;;;14.14;50.24;102719.06;5035124;28;20059;-87
2023/05/18 07:25:10;;;;;;;12.70;4.25;;;;;;;14.39;48.78;102748.94;5034898;28;20022;-86
2023/05/18 07:27:36;;;;;;;11.52;4.13;;;;;;;14.48;47.91;102779.38;5035153;28;20044;-86
2023/05/18 07:30:14;;;;;;;12.63;4.28;;;;;;;14.62;48.27;102777.06;5035514;28;20097;-85
2023/05/18 07:32:45;;;;;;;16.00;4.00;;;;;;;14.61;47.56;102761.97;5019602;28;20041;-87
2023/05/18 07:35:20;;;;;;;13.77;4.20;;;;;;;14.81;47.85;102759.78;5017344;28;20026;-87
2023/05/18 07:37:54;;;;;;;10.85;3.63;;;;;;;14.92;47.05;102731.66;5035166;28;20076;-87
2023/05/18 07:40:26;;;;;;;13.68;4.25;;;;;;;15.03;46.17;102731.88;5017810;28;20116;-86
2023/05/18 07:42:56;;;;;;;11.63;4.25;;;;;;;15.28;45.74;102743.97;5034551;28;20087;-86
2023/05/18 07:45:26;;;;;;;11.48;4.18;;;;;;;15.26;47.08;102735.97;5034132;28;20037;-87
2023/05/18 07:47:57;;;;;;;11.20;4.05;;;;;;;15.36;45.24;102733.50;5035265;28;20493;-87
2023/05/18 07:50:25;;;;;;;10.13;3.92;;;;;;;15.82;44.85;102787.78;5016042;28;20133;-86
2023/05/18 07:53:08;;;;;;;13.32;4.25;;;;;;;15.96;45.56;102762.28;5033230;28;20420;-89
2023/05/18 07:55:33;;;;;;;11.23;3.90;;;;;;;15.99;44.79;102730.38;5015317;28;20040;-87
2023/05/18 07:58:01;;;;;;;10.25;3.47;;;;;;;16.21;42.30;102748.53;5033264;28;20458;-86
2023/05/18 08:00:36;;;;;;;10.60;3.83;;;;;;;16.30;43.22;102734.47;5014822;28;20064;-85
2023/05/18 08:03:02;;;;;;;13.48;4.25;;;;;;;16.29;43.53;102735.34;5033301;28;20124;-85
2023/05/18 08:05:35;;;;;;;10.07;3.65;;;;;;;16.70;41.66;102794.78;5032891;28;20120;-84
2023/05/18 08:08:02;;;;;;;12.93;3.95;;;;;;;16.57;42.00;102727.78;4999233;28;20038;-84
2023/05/18 08:10:28;;;;;;;10.90;3.80;;;;;;;16.94;43.21;102785.38;5032511;28;20084;-84
2023/05/18 08:12:53;;;;;;;11.40;3.80;;;;;;;17.05;42.67;102774.88;5051258;28;20065;-84
2023/05/18 08:15:19;;;;;;;11.38;4.10;;;;;;;17.04;41.12;102757.91;5052495;28;20479;-85
2023/05/18 08:17:53;;;;;;;15.98;3.90;;;;;;;17.34;40.26;102789.50;5052540;28;20111;-83
2023/05/18 08:20:19;;;;;;;13.80;4.03;;;;;;;17.33;39.97;102765.47;5019529;28;20037;-83
2023/05/18 08:22:44;;;;;;;9.20;3.80;;;;;;;17.45;40.04;102782.56;5052600;28;20164;-85
2023/05/18 08:25:13;;;;;;;14.18;4.03;;;;;;;17.39;40.41;102747.75;5052444;28;20059;-84
2023/05/18 08:27:38;;;;;;;9.98;3.80;;;;;;;17.62;39.11;102789.91;5052308;28;20377;-83
2023/05/18 08:30:05;;;;;;;12.85;3.85;;;;;;;17.34;38.96;102733.41;5052619;28;20036;-84
2023/05/18 08:32:31;;;;;;;12.57;4.03;;;;;;;17.78;38.87;102781.22;5052640;28;20033;-84
2023/05/18 08:34:57;;;;;;;10.30;3.80;;;;;;;17.49;38.54;102730.03;5052426;28;20035;-83
2023/05/18 08:37:28;;;;;;;11.00;3.78;;;;;;;17.81;38.04;102777.69;5034114;28;20116;-83
2023/05/18 08:39:53;;;;;;;9.77;3.70;;;;;;;17.88;37.90;102761.72;5052624;28;20036;-83
2023/05/18 08:42:23;;;;;;;13.18;3.80;;;;;;;18.05;37.81;102759.25;5034518;28;20052;-84
2023/05/18 08:45:34;;;;;;;13.07;3.65;;;;;;;18.21;38.19;102752.28;5034615;28;20429;-83
2023/05/18 08:48:01;;;;;;;9.23;3.58;;;;;;;18.35;36.96;102745.25;5035071;28;20040;-83
2023/05/18 08:50:30;;;;;;;11.82;3.38;;;;;;;18.66;37.65;102749.06;5052462;28;20031;-83
2023/05/18 08:53:04;;;;;;;15.27;3.78;;;;;;;18.73;36.94;102744.72;5052333;28;20098;-83
2023/05/18 08:55:35;;;;;;;14.82;4.13;;;;;;;19.07;36.75;102744.94;5034677;28;20021;-83
2023/05/18 08:58:02;;;;;;;11.75;3.92;;;;;;;19.33;34.92;102762.06;5052427;28;20024;-84
2023/05/18 09:00:28;;;;;;;13.45;3.75;;;;;;;19.23;35.90;102753.06;5051976;28;20035;-84
2023/05/18 09:02:54;;;;;;;8.80;3.40;;;;;;;19.20;35.74;102749.47;5034081;28;20036;-84
2023/05/18 09:05:21;;;;;;;9.75;3.20;;;;;;;19.24;35.04;102745.94;5017977;28;20531;-84
2023/05/18 09:07:57;;;;;;;12.00;3.35;;;;;;;19.21;34.16;102757.50;5052572;28;20040;-84
2023/05/18 09:10:23;;;;;;;12.48;3.45;;;;;;;19.13;34.31;102736.91;5035564;28;20055;-84
2023/05/18 09:12:49;;;;;;;10.63;3.35;;;;;;;19.39;34.31;102754.03;5052262;28;20071;-83
2023/05/18 09:15:16;;;;;;;9.38;3.00;;;;;;;19.55;35.32;102751.41;5052238;28;20091;-84
2023/05/18 09:17:42;;;;;;;12.02;3.30;;;;;;;19.79;35.24;102750.66;5052136;28;20120;-84
2023/05/18 09:20:09;;;;;;;11.35;3.40;;;;;;;20.08;33.46;102740.84;5033704;28;20124;-84
2023/05/18 09:22:35;;;;;;;11.48;3.72;;;;;;;20.19;32.50;102735.53;5052244;28;20469;-84
2023/05/18 09:25:07;;;;;;;16.75;3.65;;;;;;;20.48;34.55;102723.03;5052161;28;20033;-84
2023/05/18 09:27:32;;;;;;;12.52;3.60;;;;;;;21.04;32.62;102745.34;5051811;28;20029;-84
2023/05/18 09:29:58;;;;;;;9.10;3.50;;;;;;;20.96;30.62;102745.34;5052039;28;20040;-84
2023/05/18 09:32:24;;;;;;;11.52;3.75;;;;;;;20.48;31.03;102719.47;5051957;28;20037;-84
2023/05/18 09:34:50;;;;;;;12.63;3.22;;;;;;;20.71;31.20;102728.38;5052060;28;20422;-84
2023/05/18 09:37:19;;;;;;;9.98;3.42;;;;;;;20.76;30.65;102723.88;5051888;28;20059;-83
2023/05/18 09:39:57;;;;;;;10.23;3.17;;;;;;;21.10;30.57;102741.75;5051937;28;20037;-84
2023/05/18 09:42:47;;;;;;;12.40;3.75;;;;;;;20.98;31.31;102731.91;5051850;28;20125;-84
2023/05/18 09:45:24;;;;;;;11.80;3.17;;;;;;;20.95;31.34;102734.63;5050740;28;20143;-84
2023/05/18 09:47:50;;;;;;;9.00;3.40;;;;;;;21.00;29.56;102728.31;5034734;28;20037;-84
2023/05/18 09:50:19;;;;;;;9.02;3.30;;;;;;;20.98;30.06;102718.47;5055620;28;20044;-83
2023/05/18 09:52:48;;;;;;;11.98;3.70;;;;;;;21.21;30.63;102735.44;5055334;28;20091;-84
2023/05/18 09:55:18;;;;;;;10.75;3.75;;;;;;;21.31;31.04;102741.66;5055128;28;20033;-84
2023/05/18 09:57:52;;;;;;;9.98;3.63;;;;;;;21.23;30.51;102738.13;5037306;28;20037;-83
2023/05/18 10:00:19;;;;;;;9.90;3.83;;;;;;;21.19;29.80;102730.94;5037292;28;20025;-84
2023/05/18 10:02:56;;;;;;;11.50;3.85;;;;;;;20.89;29.61;102713.13;5037545;28;20120;-84
2023/05/18 10:05:25;;;;;;;12.45;3.50;;;;;;;21.06;29.69;102723.81;5036586;28;20032;-83
2023/05/18 10:07:54;;;;;;;12.77;3.63;;;;;;;21.07;31.43;102683.53;5054649;28;20059;-83
2023/05/18 10:10:27;;;;;;;10.70;3.50;;;;;;;21.24;30.90;102692.41;5054807;28;20136;-83
2023/05/18 10:12:57;;;;;;;12.18;4.03;;;;;;;20.97;30.80;102666.50;5054850;28;20033;-83
2023/05/18 10:15:23;;;;;;;10.85;3.38;;;;;;;20.88;30.67;102677.28;5036868;28;20024;-83
2023/05/18 10:18:02;;;;;;;13.23;3.60;;;;;;;20.72;30.79;102700.59;5054450;28;20036;-83
2023/05/18 10:20:27;;;;;;;13.02;3.80;;;;;;;20.17;31.29;102673.78;5054278;28;20025;-83
2023/05/18 10:22:59;;;;;;;9.05;3.70;;;;;;;20.02;32.98;102696.13;5054557;28;20060;-82
2023/05/18 10:25:26;;;;;;;9.95;3.85;;;;;;;19.88;31.34;102684.50;5036777;28;20021;-84
2023/05/18 10:27:55;;;;;;;11.23;4.00;;;;;;;20.09;32.47;102712.25;5037031;28;20480;-84
2023/05/18 10:30:25;;;;;;;11.30;3.22;;;;;;;20.04;32.70;102671.97;5054569;28;20059;-83
2023/05/18 10:32:51;;;;;;;8.70;3.60;;;;;;;19.97;31.54;102675.56;5036751;28;20032;-83
2023/05/18 10:35:27;;;;;;;12.55;4.13;;;;;;;19.86;32.38;102661.22;5036618;28;20469;-83
2023/05/18 10:37:57;;;;;;;12.00;4.10;;;;;;;19.95;32.08;102661.22;5054829;28;20466;-84
2023/05/18 10:40:23;;;;;;;8.70;3.88;;;;;;;19.87;31.70;102666.63;5036393;28;20070;-82
2023/05/18 10:42:57;;;;;;;14.35;3.88;;;;;;;20.02;31.37;102666.59;5054473;28;20029;-82
2023/05/18 10:45:26;;;;;;;9.85;3.80;;;;;;;20.19;31.45;102671.09;5054323;28;20025;-83
2023/05/18 10:47:56;;;;;;;12.63;3.90;;;;;;;20.79;32.87;102701.50;5053842;28;20021;-82
2023/05/18 10:50:22;;;;;;;12.07;4.45;;;;;;;20.86;31.62;102688.97;5053827;28;20048;-82
2023/05/18 10:52:49;;;;;;;11.40;3.95;;;;;;;21.05;32.71;102657.53;5054085;28;20460;-82
2023/05/18 10:55:14;;;;;;;12.65;4.03;;;;;;;21.09;29.18;102654.81;5054256;28;20033;-83
2023/05/18 10:57:49;;;;;;;10.57;4.50;;;;;;;20.94;29.83;102671.91;5054055;28;20425;-83
2023/05/18 11:00:15;;;;;;;14.35;3.90;;;;;;;21.05;30.33;102692.47;5053655;28;20044;-83
2023/05/18 11:02:41;;;;;;;13.32;4.35;;;;;;;21.35;30.15;102684.31;5053830;28;20036;-83
2023/05/18 11:05:08;;;;;;;13.82;3.90;;;;;;;21.38;29.98;102683.44;5054144;28;20029;-83
2023/05/18 11:07:34;;;;;;;15.50;4.60;;;;;;;21.43;29.55;102695.03;5018987;28;20047;-82
2023/05/18 11:10:10;;;;;;;10.38;4.00;;;;;;;21.35;29.91;102684.31;5053654;28;20053;-85
2023/05/18 11:12:39;;;;;;;10.05;4.38;;;;;;;21.21;30.68;102688.84;5035770;28;20481;-84
2023/05/18 11:15:05;;;;;;;12.77;4.35;;;;;;;21.47;30.32;102686.94;5053860;28;20099;-83
2023/05/18 11:17:31;;;;;;;12.25;4.13;;;;;;;21.71;29.95;102685.94;5053510;28;20125;-84
2023/05/18 11:20:08;;;;;;;13.20;4.50;;;;;;;21.85;29.45;102685.84;5053109;28;20116;-88
2023/05/18 11:23:19;;;;;;;12.00;4.53;;;;;;;22.05;30.13;102682.97;5053518;28;20366;-85
2023/05/18 11:25:47;;;;;;;9.93;3.80;;;;;;;22.05;29.00;102666.81;5043071;28;20060;-86
2023/05/18 11:28:13;;;;;;;9.77;4.28;;;;;;;22.03;29.63;102679.41;5019005;28;20114;-85
2023/05/18 11:30:43;;;;;;;11.90;4.05;;;;;;;22.33;29.77;102680.09;5035742;28;20112;-84
2023/05/18 11:33:13;;;;;;;13.50;4.22;;;;;;;22.37;29.00;102674.69;5053485;28;20036;-84
2023/05/18 11:36:02;;;;;;;10.23;4.20;;;;;;;22.38;29.44;102679.16;5035798;28;20166;-85